sensor_id;sensor_type;location;lat;lon;timestamp;P1;durP1;ratioP1;P2;durP2;ratioP2
72087;SDS011;59961;50.232;8.616;2023-03-23T00:00:47;2.67;;;0.83;;
72087;SDS011;59961;50.232;8.616;2023-03-23T00:03:12;2.90;;;1.00;;
72087;SDS011;59961;50.232;8.616;2023-03-23T00:05:38;1.93;;;0.87;;
72087;SDS011;59961;50.232;8.616;2023-03-23T00:08:06;2.05;;;0.82;;
72087;SDS011;59961;50.232;8.616;2023-03-23T00:10:31;3.63;;;0.90;;
72087;SDS011;59961;50.232;8.616;2023-03-23T00:12:59;2.53;;;1.00;;
72087;SDS011;59961;50.232;8.616;2023-03-23T00:15:27;2.67;;;0.80;;
72087;SDS011;59961;50.232;8.616;2023-03-23T00:17:52;0.90;;;0.70;;
72087;SDS011;59961;50.232;8.616;2023-03-23T00:20:17;2.50;;;0.90;;
72087;SDS011;59961;50.232;8.616;2023-03-23T00:22:42;3.23;;;0.90;;
72087;SDS011;59961;50.232;8.616;2023-03-23T00:25:08;1.95;;;0.90;;
72087;SDS011;59961;50.232;8.616;2023-03-23T00:27:33;1.93;;;0.77;;
72087;SDS011;59961;50.232;8.616;2023-03-23T00:29:58;3.40;;;0.80;;
72087;SDS011;59961;50.232;8.616;2023-03-23T00:32:24;3.00;;;1.15;;
72087;SDS011;59961;50.232;8.616;2023-03-23T00:34:54;2.97;;;0.93;;
72087;SDS011;59961;50.232;8.616;2023-03-23T00:37:19;3.08;;;0.93;;
72087;SDS011;59961;50.232;8.616;2023-03-23T00:39:44;2.33;;;0.80;;
72087;SDS011;59961;50.232;8.616;2023-03-23T00:42:11;2.65;;;0.88;;
72087;SDS011;59961;50.232;8.616;2023-03-23T00:44:37;2.13;;;0.60;;
72087;SDS011;59961;50.232;8.616;2023-03-23T00:47:04;1.65;;;0.85;;
72087;SDS011;59961;50.232;8.616;2023-03-23T00:49:29;2.20;;;1.07;;
72087;SDS011;59961;50.232;8.616;2023-03-23T00:51:55;1.63;;;0.70;;
72087;SDS011;59961;50.232;8.616;2023-03-23T00:54:21;1.87;;;0.60;;
72087;SDS011;59961;50.232;8.616;2023-03-23T00:56:46;3.75;;;0.80;;
72087;SDS011;59961;50.232;8.616;2023-03-23T00:59:12;1.87;;;0.70;;
72087;SDS011;59961;50.232;8.616;2023-03-23T01:01:37;3.10;;;1.00;;
72087;SDS011;59961;50.232;8.616;2023-03-23T01:04:02;2.77;;;0.97;;
72087;SDS011;59961;50.232;8.616;2023-03-23T01:06:32;2.28;;;0.77;;
72087;SDS011;59961;50.232;8.616;2023-03-23T01:08:59;2.67;;;0.95;;
72087;SDS011;59961;50.232;8.616;2023-03-23T01:11:25;3.33;;;0.90;;
72087;SDS011;59961;50.232;8.616;2023-03-23T01:13:51;2.20;;;0.83;;
72087;SDS011;59961;50.232;8.616;2023-03-23T01:16:16;3.60;;;1.10;;
72087;SDS011;59961;50.232;8.616;2023-03-23T01:18:41;2.88;;;0.98;;
72087;SDS011;59961;50.232;8.616;2023-03-23T01:21:07;3.33;;;1.10;;
72087;SDS011;59961;50.232;8.616;2023-03-23T01:23:33;1.08;;;0.65;;
72087;SDS011;59961;50.232;8.616;2023-03-23T01:26:02;2.80;;;0.63;;
72087;SDS011;59961;50.232;8.616;2023-03-23T01:28:27;1.73;;;0.70;;
72087;SDS011;59961;50.232;8.616;2023-03-23T01:30:52;1.77;;;0.70;;
72087;SDS011;59961;50.232;8.616;2023-03-23T01:33:17;1.40;;;0.55;;
72087;SDS011;59961;50.232;8.616;2023-03-23T01:35:42;2.53;;;0.60;;
72087;SDS011;59961;50.232;8.616;2023-03-23T01:38:08;2.30;;;0.70;;
72087;SDS011;59961;50.232;8.616;2023-03-23T01:40:33;1.42;;;0.75;;
72087;SDS011;59961;50.232;8.616;2023-03-23T01:42:58;1.80;;;0.80;;
72087;SDS011;59961;50.232;8.616;2023-03-23T01:47:49;2.80;;;0.60;;
72087;SDS011;59961;50.232;8.616;2023-03-23T01:50:16;1.85;;;1.00;;
72087;SDS011;59961;50.232;8.616;2023-03-23T01:52:41;2.57;;;0.67;;
72087;SDS011;59961;50.232;8.616;2023-03-23T01:55:07;4.07;;;0.90;;
72087;SDS011;59961;50.232;8.616;2023-03-23T01:57:32;1.35;;;0.60;;
72087;SDS011;59961;50.232;8.616;2023-03-23T01:59:59;1.60;;;0.80;;
72087;SDS011;59961;50.232;8.616;2023-03-23T02:02:25;2.17;;;0.70;;
72087;SDS011;59961;50.232;8.616;2023-03-23T02:04:51;2.93;;;1.00;;
72087;SDS011;59961;50.232;8.616;2023-03-23T02:07:20;1.23;;;0.80;;
72087;SDS011;59961;50.232;8.616;2023-03-23T02:09:45;1.30;;;0.70;;
72087;SDS011;59961;50.232;8.616;2023-03-23T02:12:10;2.63;;;1.00;;
72087;SDS011;59961;50.232;8.616;2023-03-23T02:14:36;1.90;;;0.80;;
72087;SDS011;59961;50.232;8.616;2023-03-23T02:17:03;2.92;;;0.75;;
72087;SDS011;59961;50.232;8.616;2023-03-23T02:24:55;2.22;;;0.82;;
72087;SDS011;59961;50.232;8.616;2023-03-23T02:27:42;1.65;;;0.60;;
72087;SDS011;59961;50.232;8.616;2023-03-23T02:35:17;1.85;;;0.80;;
72087;SDS011;59961;50.232;8.616;2023-03-23T02:40:30;1.90;;;0.70;;
72087;SDS011;59961;50.232;8.616;2023-03-23T02:42:54;1.80;;;0.80;;
72087;SDS011;59961;50.232;8.616;2023-03-23T02:45:20;2.40;;;0.80;;
72087;SDS011;59961;50.232;8.616;2023-03-23T02:47:46;2.13;;;0.82;;
72087;SDS011;59961;50.232;8.616;2023-03-23T02:50:14;2.70;;;1.05;;
72087;SDS011;59961;50.232;8.616;2023-03-23T02:52:41;1.88;;;0.70;;
72087;SDS011;59961;50.232;8.616;2023-03-23T02:55:08;1.63;;;0.77;;
72087;SDS011;59961;50.232;8.616;2023-03-23T02:57:36;2.80;;;0.97;;
72087;SDS011;59961;50.232;8.616;2023-03-23T03:00:03;1.30;;;0.70;;
72087;SDS011;59961;50.232;8.616;2023-03-23T03:02:31;3.42;;;0.85;;
72087;SDS011;59961;50.232;8.616;2023-03-23T03:10:24;1.67;;;0.87;;
72087;SDS011;59961;50.232;8.616;2023-03-23T03:15:44;1.95;;;0.80;;
72087;SDS011;59961;50.232;8.616;2023-03-23T03:18:15;2.85;;;1.00;;
72087;SDS011;59961;50.232;8.616;2023-03-23T03:20:43;2.38;;;0.70;;
72087;SDS011;59961;50.232;8.616;2023-03-23T03:23:10;2.53;;;0.90;;
72087;SDS011;59961;50.232;8.616;2023-03-23T03:25:37;2.10;;;1.00;;
72087;SDS011;59961;50.232;8.616;2023-03-23T03:28:03;2.78;;;0.90;;
72087;SDS011;59961;50.232;8.616;2023-03-23T03:30:30;1.63;;;1.00;;
72087;SDS011;59961;50.232;8.616;2023-03-23T03:32:56;1.80;;;0.82;;
72087;SDS011;59961;50.232;8.616;2023-03-23T03:35:22;2.87;;;0.83;;
72087;SDS011;59961;50.232;8.616;2023-03-23T03:37:48;1.88;;;0.82;;
72087;SDS011;59961;50.232;8.616;2023-03-23T03:40:14;1.60;;;0.98;;
72087;SDS011;59961;50.232;8.616;2023-03-23T03:42:41;1.67;;;1.00;;
72087;SDS011;59961;50.232;8.616;2023-03-23T03:45:07;2.07;;;0.93;;
72087;SDS011;59961;50.232;8.616;2023-03-23T03:47:33;5.18;;;1.10;;
72087;SDS011;59961;50.232;8.616;2023-03-23T03:49:58;1.90;;;0.90;;
72087;SDS011;59961;50.232;8.616;2023-03-23T03:52:23;2.07;;;1.10;;
72087;SDS011;59961;50.232;8.616;2023-03-23T03:54:48;3.17;;;1.13;;
72087;SDS011;59961;50.232;8.616;2023-03-23T03:57:13;2.97;;;1.20;;
72087;SDS011;59961;50.232;8.616;2023-03-23T03:59:38;1.25;;;0.80;;
72087;SDS011;59961;50.232;8.616;2023-03-23T04:02:04;1.63;;;0.70;;
72087;SDS011;59961;50.232;8.616;2023-03-23T04:04:29;3.10;;;0.90;;
72087;SDS011;59961;50.232;8.616;2023-03-23T04:06:54;2.08;;;1.00;;
72087;SDS011;59961;50.232;8.616;2023-03-23T04:09:19;1.43;;;0.90;;
72087;SDS011;59961;50.232;8.616;2023-03-23T04:11:44;1.93;;;0.93;;
72087;SDS011;59961;50.232;8.616;2023-03-23T04:14:10;1.83;;;0.90;;
72087;SDS011;59961;50.232;8.616;2023-03-23T04:16:35;2.75;;;1.27;;
72087;SDS011;59961;50.232;8.616;2023-03-23T04:19:00;5.73;;;1.10;;
72087;SDS011;59961;50.232;8.616;2023-03-23T04:21:25;2.72;;;0.90;;
72087;SDS011;59961;50.232;8.616;2023-03-23T04:23:54;2.10;;;1.25;;
72087;SDS011;59961;50.232;8.616;2023-03-23T04:26:19;3.10;;;1.00;;
72087;SDS011;59961;50.232;8.616;2023-03-23T04:28:44;1.95;;;0.80;;
72087;SDS011;59961;50.232;8.616;2023-03-23T04:31:09;2.50;;;0.88;;
72087;SDS011;59961;50.232;8.616;2023-03-23T04:33:37;2.05;;;1.02;;
72087;SDS011;59961;50.232;8.616;2023-03-23T04:36:02;3.00;;;1.00;;
72087;SDS011;59961;50.232;8.616;2023-03-23T04:38:28;3.05;;;1.00;;
72087;SDS011;59961;50.232;8.616;2023-03-23T04:40:55;2.10;;;0.90;;
72087;SDS011;59961;50.232;8.616;2023-03-23T04:43:21;1.85;;;0.90;;
72087;SDS011;59961;50.232;8.616;2023-03-23T04:45:51;2.05;;;1.10;;
72087;SDS011;59961;50.232;8.616;2023-03-23T04:48:16;1.40;;;0.75;;
72087;SDS011;59961;50.232;8.616;2023-03-23T04:50:42;5.53;;;1.03;;
72087;SDS011;59961;50.232;8.616;2023-03-23T04:53:08;2.13;;;1.10;;
72087;SDS011;59961;50.232;8.616;2023-03-23T04:55:34;2.83;;;1.00;;
72087;SDS011;59961;50.232;8.616;2023-03-23T04:58:03;2.13;;;0.90;;
72087;SDS011;59961;50.232;8.616;2023-03-23T05:00:29;2.17;;;1.02;;
72087;SDS011;59961;50.232;8.616;2023-03-23T05:02:54;2.43;;;1.20;;
72087;SDS011;59961;50.232;8.616;2023-03-23T05:05:20;3.17;;;0.90;;
72087;SDS011;59961;50.232;8.616;2023-03-23T05:07:46;3.43;;;1.13;;
72087;SDS011;59961;50.232;8.616;2023-03-23T05:10:11;2.57;;;1.23;;
72087;SDS011;59961;50.232;8.616;2023-03-23T05:12:37;1.65;;;0.77;;
72087;SDS011;59961;50.232;8.616;2023-03-23T05:15:03;2.67;;;1.10;;
72087;SDS011;59961;50.232;8.616;2023-03-23T05:17:28;2.92;;;0.70;;
72087;SDS011;59961;50.232;8.616;2023-03-23T05:19:55;2.42;;;0.77;;
72087;SDS011;59961;50.232;8.616;2023-03-23T05:22:21;2.67;;;1.13;;
72087;SDS011;59961;50.232;8.616;2023-03-23T05:24:47;3.13;;;0.93;;
72087;SDS011;59961;50.232;8.616;2023-03-23T05:27:13;3.57;;;1.03;;
72087;SDS011;59961;50.232;8.616;2023-03-23T05:29:39;3.40;;;0.93;;
72087;SDS011;59961;50.232;8.616;2023-03-23T05:32:05;2.15;;;0.88;;
72087;SDS011;59961;50.232;8.616;2023-03-23T05:34:32;2.92;;;1.00;;
72087;SDS011;59961;50.232;8.616;2023-03-23T05:36:58;3.53;;;1.00;;
72087;SDS011;59961;50.232;8.616;2023-03-23T05:39:24;2.50;;;1.27;;
72087;SDS011;59961;50.232;8.616;2023-03-23T05:41:50;3.17;;;1.27;;
72087;SDS011;59961;50.232;8.616;2023-03-23T05:44:15;2.73;;;1.10;;
72087;SDS011;59961;50.232;8.616;2023-03-23T05:46:40;1.70;;;0.80;;
72087;SDS011;59961;50.232;8.616;2023-03-23T05:49:06;3.03;;;1.10;;
72087;SDS011;59961;50.232;8.616;2023-03-23T05:51:31;2.55;;;1.17;;
72087;SDS011;59961;50.232;8.616;2023-03-23T05:53:56;3.70;;;0.90;;
72087;SDS011;59961;50.232;8.616;2023-03-23T05:56:21;2.40;;;1.07;;
72087;SDS011;59961;50.232;8.616;2023-03-23T05:58:46;2.70;;;1.30;;
72087;SDS011;59961;50.232;8.616;2023-03-23T06:01:11;2.92;;;1.30;;
72087;SDS011;59961;50.232;8.616;2023-03-23T06:03:39;3.58;;;1.27;;
72087;SDS011;59961;50.232;8.616;2023-03-23T06:06:04;1.77;;;0.70;;
72087;SDS011;59961;50.232;8.616;2023-03-23T06:08:29;2.50;;;1.10;;
72087;SDS011;59961;50.232;8.616;2023-03-23T06:10:55;3.75;;;1.08;;
72087;SDS011;59961;50.232;8.616;2023-03-23T06:13:20;4.07;;;1.27;;
72087;SDS011;59961;50.232;8.616;2023-03-23T06:15:46;2.67;;;1.00;;
72087;SDS011;59961;50.232;8.616;2023-03-23T06:18:11;5.57;;;1.33;;
72087;SDS011;59961;50.232;8.616;2023-03-23T06:20:37;5.05;;;1.20;;
72087;SDS011;59961;50.232;8.616;2023-03-23T06:23:03;3.50;;;1.23;;
72087;SDS011;59961;50.232;8.616;2023-03-23T06:25:29;2.60;;;1.25;;
72087;SDS011;59961;50.232;8.616;2023-03-23T06:27:54;1.80;;;0.90;;
72087;SDS011;59961;50.232;8.616;2023-03-23T06:30:20;3.03;;;1.00;;
72087;SDS011;59961;50.232;8.616;2023-03-23T06:32:45;3.43;;;1.30;;
72087;SDS011;59961;50.232;8.616;2023-03-23T06:35:12;2.58;;;1.08;;
72087;SDS011;59961;50.232;8.616;2023-03-23T06:37:37;2.72;;;1.20;;
72087;SDS011;59961;50.232;8.616;2023-03-23T06:40:03;3.17;;;1.13;;
72087;SDS011;59961;50.232;8.616;2023-03-23T06:42:31;4.68;;;1.30;;
72087;SDS011;59961;50.232;8.616;2023-03-23T06:44:56;3.47;;;1.50;;
72087;SDS011;59961;50.232;8.616;2023-03-23T06:47:23;4.50;;;1.33;;
72087;SDS011;59961;50.232;8.616;2023-03-23T06:49:48;3.13;;;1.23;;
72087;SDS011;59961;50.232;8.616;2023-03-23T06:52:13;2.80;;;1.37;;
72087;SDS011;59961;50.232;8.616;2023-03-23T06:54:38;6.13;;;1.40;;
72087;SDS011;59961;50.232;8.616;2023-03-23T06:57:03;3.63;;;1.40;;
72087;SDS011;59961;50.232;8.616;2023-03-23T06:59:28;6.25;;;2.00;;
72087;SDS011;59961;50.232;8.616;2023-03-23T07:01:54;2.67;;;1.10;;
72087;SDS011;59961;50.232;8.616;2023-03-23T07:04:19;3.17;;;1.30;;
72087;SDS011;59961;50.232;8.616;2023-03-23T07:06:44;3.07;;;1.20;;
72087;SDS011;59961;50.232;8.616;2023-03-23T07:09:10;2.33;;;0.98;;
72087;SDS011;59961;50.232;8.616;2023-03-23T07:11:35;3.63;;;1.20;;
72087;SDS011;59961;50.232;8.616;2023-03-23T07:14:01;6.43;;;1.47;;
72087;SDS011;59961;50.232;8.616;2023-03-23T07:16:26;3.33;;;1.40;;
72087;SDS011;59961;50.232;8.616;2023-03-23T07:18:51;3.58;;;1.25;;
72087;SDS011;59961;50.232;8.616;2023-03-23T07:21:16;2.30;;;1.17;;
72087;SDS011;59961;50.232;8.616;2023-03-23T07:23:42;2.43;;;1.00;;
72087;SDS011;59961;50.232;8.616;2023-03-23T07:26:07;4.73;;;1.30;;
72087;SDS011;59961;50.232;8.616;2023-03-23T07:28:32;2.75;;;1.17;;
72087;SDS011;59961;50.232;8.616;2023-03-23T07:30:57;3.70;;;1.23;;
72087;SDS011;59961;50.232;8.616;2023-03-23T07:33:23;3.17;;;1.27;;
72087;SDS011;59961;50.232;8.616;2023-03-23T07:35:48;2.43;;;1.17;;
72087;SDS011;59961;50.232;8.616;2023-03-23T07:38:13;4.07;;;1.52;;
72087;SDS011;59961;50.232;8.616;2023-03-23T07:40:39;4.67;;;1.40;;
72087;SDS011;59961;50.232;8.616;2023-03-23T07:43:04;2.70;;;1.20;;
72087;SDS011;59961;50.232;8.616;2023-03-23T07:45:30;2.58;;;0.93;;
72087;SDS011;59961;50.232;8.616;2023-03-23T07:47:56;3.23;;;1.40;;
72087;SDS011;59961;50.232;8.616;2023-03-23T07:50:21;2.17;;;1.05;;
72087;SDS011;59961;50.232;8.616;2023-03-23T07:52:48;3.35;;;1.35;;
72087;SDS011;59961;50.232;8.616;2023-03-23T07:55:14;3.20;;;1.50;;
72087;SDS011;59961;50.232;8.616;2023-03-23T07:57:42;2.37;;;1.27;;
72087;SDS011;59961;50.232;8.616;2023-03-23T08:00:08;2.72;;;1.42;;
72087;SDS011;59961;50.232;8.616;2023-03-23T08:02:44;2.25;;;1.20;;
72087;SDS011;59961;50.232;8.616;2023-03-23T08:05:10;3.92;;;1.90;;
72087;SDS011;59961;50.232;8.616;2023-03-23T08:07:35;3.10;;;1.52;;
72087;SDS011;59961;50.232;8.616;2023-03-23T08:10:00;4.17;;;2.17;;
72087;SDS011;59961;50.232;8.616;2023-03-23T08:12:26;3.33;;;1.50;;
72087;SDS011;59961;50.232;8.616;2023-03-23T08:14:52;4.90;;;1.83;;
72087;SDS011;59961;50.232;8.616;2023-03-23T08:17:17;4.80;;;2.00;;
72087;SDS011;59961;50.232;8.616;2023-03-23T08:19:43;3.13;;;1.38;;
72087;SDS011;59961;50.232;8.616;2023-03-23T08:22:10;3.57;;;1.40;;
72087;SDS011;59961;50.232;8.616;2023-03-23T08:24:35;3.60;;;1.83;;
72087;SDS011;59961;50.232;8.616;2023-03-23T08:27:00;4.90;;;2.03;;
72087;SDS011;59961;50.232;8.616;2023-03-23T08:29:26;6.70;;;1.80;;
72087;SDS011;59961;50.232;8.616;2023-03-23T08:31:51;3.30;;;2.00;;
72087;SDS011;59961;50.232;8.616;2023-03-23T08:34:16;7.88;;;2.28;;
72087;SDS011;59961;50.232;8.616;2023-03-23T08:36:42;4.77;;;1.80;;
72087;SDS011;59961;50.232;8.616;2023-03-23T08:39:09;4.87;;;1.97;;
72087;SDS011;59961;50.232;8.616;2023-03-23T08:41:34;4.80;;;1.63;;
72087;SDS011;59961;50.232;8.616;2023-03-23T08:43:59;4.10;;;1.75;;
72087;SDS011;59961;50.232;8.616;2023-03-23T08:46:24;4.10;;;1.73;;
72087;SDS011;59961;50.232;8.616;2023-03-23T08:48:49;3.30;;;1.50;;
72087;SDS011;59961;50.232;8.616;2023-03-23T08:51:15;2.72;;;1.30;;
72087;SDS011;59961;50.232;8.616;2023-03-23T08:53:40;2.97;;;1.60;;
72087;SDS011;59961;50.232;8.616;2023-03-23T08:56:06;3.13;;;1.73;;
72087;SDS011;59961;50.232;8.616;2023-03-23T08:58:36;3.55;;;1.65;;
72087;SDS011;59961;50.232;8.616;2023-03-23T09:01:01;4.05;;;1.40;;
72087;SDS011;59961;50.232;8.616;2023-03-23T09:03:27;3.10;;;1.43;;
72087;SDS011;59961;50.232;8.616;2023-03-23T09:05:53;4.13;;;1.83;;
72087;SDS011;59961;50.232;8.616;2023-03-23T09:08:18;6.23;;;1.40;;
72087;SDS011;59961;50.232;8.616;2023-03-23T09:10:43;7.37;;;1.90;;
72087;SDS011;59961;50.232;8.616;2023-03-23T09:13:08;4.82;;;1.70;;
72087;SDS011;59961;50.232;8.616;2023-03-23T09:15:33;3.87;;;1.47;;
72087;SDS011;59961;50.232;8.616;2023-03-23T09:17:58;4.90;;;1.77;;
72087;SDS011;59961;50.232;8.616;2023-03-23T09:20:24;3.90;;;1.70;;
72087;SDS011;59961;50.232;8.616;2023-03-23T09:22:51;4.55;;;1.80;;
72087;SDS011;59961;50.232;8.616;2023-03-23T09:25:18;3.42;;;1.40;;
72087;SDS011;59961;50.232;8.616;2023-03-23T09:27:48;5.27;;;1.83;;
72087;SDS011;59961;50.232;8.616;2023-03-23T09:30:16;4.15;;;1.50;;
72087;SDS011;59961;50.232;8.616;2023-03-23T09:32:44;4.53;;;1.35;;
72087;SDS011;59961;50.232;8.616;2023-03-23T09:35:09;4.93;;;1.90;;
72087;SDS011;59961;50.232;8.616;2023-03-23T09:37:37;5.32;;;1.67;;
72087;SDS011;59961;50.232;8.616;2023-03-23T09:40:03;4.38;;;2.03;;
72087;SDS011;59961;50.232;8.616;2023-03-23T09:42:31;3.17;;;1.80;;
72087;SDS011;59961;50.232;8.616;2023-03-23T09:45:02;3.75;;;1.70;;
72087;SDS011;59961;50.232;8.616;2023-03-23T09:47:43;4.55;;;1.65;;
72087;SDS011;59961;50.232;8.616;2023-03-23T09:50:10;3.55;;;1.70;;
72087;SDS011;59961;50.232;8.616;2023-03-23T09:55:02;4.93;;;1.70;;
72087;SDS011;59961;50.232;8.616;2023-03-23T09:57:29;2.90;;;1.40;;
72087;SDS011;59961;50.232;8.616;2023-03-23T10:00:02;2.78;;;1.65;;
72087;SDS011;59961;50.232;8.616;2023-03-23T10:02:41;5.53;;;1.80;;
72087;SDS011;59961;50.232;8.616;2023-03-23T10:07:51;4.30;;;1.77;;
72087;SDS011;59961;50.232;8.616;2023-03-23T10:10:16;2.90;;;1.50;;
72087;SDS011;59961;50.232;8.616;2023-03-23T10:12:45;4.78;;;1.60;;
72087;SDS011;59961;50.232;8.616;2023-03-23T10:17:42;2.07;;;1.03;;
72087;SDS011;59961;50.232;8.616;2023-03-23T10:22:38;2.17;;;0.88;;
72087;SDS011;59961;50.232;8.616;2023-03-23T10:30:14;2.30;;;0.90;;
72087;SDS011;59961;50.232;8.616;2023-03-23T10:32:41;2.43;;;0.90;;
72087;SDS011;59961;50.232;8.616;2023-03-23T10:35:10;1.20;;;0.60;;
72087;SDS011;59961;50.232;8.616;2023-03-23T10:37:38;1.52;;;0.65;;
72087;SDS011;59961;50.232;8.616;2023-03-23T10:40:05;1.63;;;0.90;;
72087;SDS011;59961;50.232;8.616;2023-03-23T10:42:35;2.13;;;1.00;;
72087;SDS011;59961;50.232;8.616;2023-03-23T10:45:11;2.50;;;1.00;;
72087;SDS011;59961;50.232;8.616;2023-03-23T10:47:38;3.70;;;0.90;;
72087;SDS011;59961;50.232;8.616;2023-03-23T10:50:05;2.13;;;0.80;;
72087;SDS011;59961;50.232;8.616;2023-03-23T10:52:37;1.63;;;0.80;;
72087;SDS011;59961;50.232;8.616;2023-03-23T10:55:13;1.63;;;0.60;;
72087;SDS011;59961;50.232;8.616;2023-03-23T10:57:40;2.78;;;0.98;;
72087;SDS011;59961;50.232;8.616;2023-03-23T11:00:07;3.83;;;1.17;;
72087;SDS011;59961;50.232;8.616;2023-03-23T11:02:42;2.88;;;0.80;;
72087;SDS011;59961;50.232;8.616;2023-03-23T11:05:20;1.85;;;0.93;;
72087;SDS011;59961;50.232;8.616;2023-03-23T11:07:52;1.07;;;0.53;;
72087;SDS011;59961;50.232;8.616;2023-03-23T11:10:22;2.45;;;0.60;;
72087;SDS011;59961;50.232;8.616;2023-03-23T11:12:47;1.60;;;0.60;;
72087;SDS011;59961;50.232;8.616;2023-03-23T11:15:29;1.57;;;0.60;;
72087;SDS011;59961;50.232;8.616;2023-03-23T11:17:55;2.22;;;0.63;;
72087;SDS011;59961;50.232;8.616;2023-03-23T11:20:22;1.35;;;0.60;;
72087;SDS011;59961;50.232;8.616;2023-03-23T11:22:47;0.90;;;0.40;;
72087;SDS011;59961;50.232;8.616;2023-03-23T11:25:12;2.13;;;0.93;;
72087;SDS011;59961;50.232;8.616;2023-03-23T11:27:38;1.10;;;0.70;;
72087;SDS011;59961;50.232;8.616;2023-03-23T11:30:11;2.22;;;0.80;;
72087;SDS011;59961;50.232;8.616;2023-03-23T11:32:37;4.25;;;1.10;;
72087;SDS011;59961;50.232;8.616;2023-03-23T11:35:04;1.73;;;1.20;;
72087;SDS011;59961;50.232;8.616;2023-03-23T11:37:43;3.95;;;1.08;;
72087;SDS011;59961;50.232;8.616;2023-03-23T11:42:43;2.13;;;0.63;;
72087;SDS011;59961;50.232;8.616;2023-03-23T11:45:19;1.17;;;0.68;;
72087;SDS011;59961;50.232;8.616;2023-03-23T11:50:25;4.65;;;1.23;;
72087;SDS011;59961;50.232;8.616;2023-03-23T11:53:02;1.13;;;0.70;;
72087;SDS011;59961;50.232;8.616;2023-03-23T11:55:49;2.20;;;0.87;;
72087;SDS011;59961;50.232;8.616;2023-03-23T11:58:19;1.73;;;1.20;;
72087;SDS011;59961;50.232;8.616;2023-03-23T12:00:58;2.20;;;0.70;;
72087;SDS011;59961;50.232;8.616;2023-03-23T12:06:06;2.42;;;0.85;;
72087;SDS011;59961;50.232;8.616;2023-03-23T12:13:47;2.33;;;0.70;;
72087;SDS011;59961;50.232;8.616;2023-03-23T12:19:04;1.55;;;0.88;;
72087;SDS011;59961;50.232;8.616;2023-03-23T12:27:13;0.90;;;0.70;;
72087;SDS011;59961;50.232;8.616;2023-03-23T12:37:36;3.70;;;0.60;;
72087;SDS011;59961;50.232;8.616;2023-03-23T12:45:08;1.77;;;0.70;;
72087;SDS011;59961;50.232;8.616;2023-03-23T12:47:48;2.22;;;0.90;;
72087;SDS011;59961;50.232;8.616;2023-03-23T12:50:15;1.42;;;0.77;;
72087;SDS011;59961;50.232;8.616;2023-03-23T12:52:45;5.07;;;1.13;;
72087;SDS011;59961;50.232;8.616;2023-03-23T12:55:15;2.05;;;1.02;;
72087;SDS011;59961;50.232;8.616;2023-03-23T12:57:57;1.00;;;0.70;;
72087;SDS011;59961;50.232;8.616;2023-03-23T13:00:29;2.13;;;0.98;;
72087;SDS011;59961;50.232;8.616;2023-03-23T13:07:56;3.95;;;1.08;;
72087;SDS011;59961;50.232;8.616;2023-03-23T13:10:26;1.10;;;0.70;;
72087;SDS011;59961;50.232;8.616;2023-03-23T13:12:53;2.22;;;1.00;;
72087;SDS011;59961;50.232;8.616;2023-03-23T13:18:19;1.57;;;0.80;;
72087;SDS011;59961;50.232;8.616;2023-03-23T13:23:19;2.50;;;0.70;;
72087;SDS011;59961;50.232;8.616;2023-03-23T13:25:53;1.38;;;0.80;;
72087;SDS011;59961;50.232;8.616;2023-03-23T13:28:20;2.28;;;0.63;;
72087;SDS011;59961;50.232;8.616;2023-03-23T13:31:00;1.80;;;0.80;;
72087;SDS011;59961;50.232;8.616;2023-03-23T13:33:28;1.60;;;0.80;;
72087;SDS011;59961;50.232;8.616;2023-03-23T13:35:54;2.53;;;0.90;;
72087;SDS011;59961;50.232;8.616;2023-03-23T13:38:24;2.10;;;1.00;;
72087;SDS011;59961;50.232;8.616;2023-03-23T13:40:50;1.38;;;0.90;;
72087;SDS011;59961;50.232;8.616;2023-03-23T13:43:25;1.75;;;1.08;;
72087;SDS011;59961;50.232;8.616;2023-03-23T13:45:51;1.23;;;0.60;;
72087;SDS011;59961;50.232;8.616;2023-03-23T13:48:20;1.80;;;0.85;;
72087;SDS011;59961;50.232;8.616;2023-03-23T13:50:57;4.75;;;1.35;;
72087;SDS011;59961;50.232;8.616;2023-03-23T13:58:44;1.33;;;0.70;;
72087;SDS011;59961;50.232;8.616;2023-03-23T14:01:14;1.67;;;0.52;;
72087;SDS011;59961;50.232;8.616;2023-03-23T14:03:42;1.95;;;0.75;;
72087;SDS011;59961;50.232;8.616;2023-03-23T14:06:14;1.83;;;0.70;;
72087;SDS011;59961;50.232;8.616;2023-03-23T14:08:44;1.10;;;0.70;;
72087;SDS011;59961;50.232;8.616;2023-03-23T14:11:13;1.80;;;0.60;;
72087;SDS011;59961;50.232;8.616;2023-03-23T14:16:24;1.45;;;1.00;;
72087;SDS011;59961;50.232;8.616;2023-03-23T14:21:31;1.13;;;0.82;;
72087;SDS011;59961;50.232;8.616;2023-03-23T14:23:59;2.13;;;0.70;;
72087;SDS011;59961;50.232;8.616;2023-03-23T14:26:24;1.95;;;0.90;;
72087;SDS011;59961;50.232;8.616;2023-03-23T14:28:50;2.10;;;0.80;;
72087;SDS011;59961;50.232;8.616;2023-03-23T14:31:18;1.30;;;0.77;;
72087;SDS011;59961;50.232;8.616;2023-03-23T14:33:43;4.85;;;1.80;;
72087;SDS011;59961;50.232;8.616;2023-03-23T14:36:09;1.90;;;0.97;;
72087;SDS011;59961;50.232;8.616;2023-03-23T14:38:34;1.70;;;0.90;;
72087;SDS011;59961;50.232;8.616;2023-03-23T14:41:00;1.13;;;0.80;;
72087;SDS011;59961;50.232;8.616;2023-03-23T14:43:26;2.60;;;1.17;;
72087;SDS011;59961;50.232;8.616;2023-03-23T14:45:52;1.40;;;0.65;;
72087;SDS011;59961;50.232;8.616;2023-03-23T14:48:18;1.70;;;0.80;;
72087;SDS011;59961;50.232;8.616;2023-03-23T14:50:49;1.67;;;0.77;;
72087;SDS011;59961;50.232;8.616;2023-03-23T14:55:45;3.05;;;1.17;;
72087;SDS011;59961;50.232;8.616;2023-03-23T14:58:13;1.40;;;0.82;;
72087;SDS011;59961;50.232;8.616;2023-03-23T15:00:39;1.63;;;0.90;;
72087;SDS011;59961;50.232;8.616;2023-03-23T15:03:06;3.35;;;1.13;;
72087;SDS011;59961;50.232;8.616;2023-03-23T15:05:34;2.47;;;0.90;;
72087;SDS011;59961;50.232;8.616;2023-03-23T15:08:02;1.17;;;0.70;;
72087;SDS011;59961;50.232;8.616;2023-03-23T15:10:28;2.15;;;1.15;;
72087;SDS011;59961;50.232;8.616;2023-03-23T15:12:54;2.23;;;0.80;;
72087;SDS011;59961;50.232;8.616;2023-03-23T15:17:47;2.27;;;0.90;;
72087;SDS011;59961;50.232;8.616;2023-03-23T15:20:21;1.63;;;1.00;;
72087;SDS011;59961;50.232;8.616;2023-03-23T15:22:47;1.88;;;1.05;;
72087;SDS011;59961;50.232;8.616;2023-03-23T15:25:17;1.80;;;0.80;;
72087;SDS011;59961;50.232;8.616;2023-03-23T15:27:50;3.03;;;1.10;;
72087;SDS011;59961;50.232;8.616;2023-03-23T15:30:27;4.05;;;1.00;;
72087;SDS011;59961;50.232;8.616;2023-03-23T15:32:55;1.30;;;0.68;;
72087;SDS011;59961;50.232;8.616;2023-03-23T15:35:24;1.40;;;0.90;;
72087;SDS011;59961;50.232;8.616;2023-03-23T15:40:16;3.95;;;1.00;;
72087;SDS011;59961;50.232;8.616;2023-03-23T15:42:42;2.33;;;1.00;;
72087;SDS011;59961;50.232;8.616;2023-03-23T15:52:35;2.72;;;1.13;;
72087;SDS011;59961;50.232;8.616;2023-03-23T15:55:00;2.37;;;1.07;;
72087;SDS011;59961;50.232;8.616;2023-03-23T15:57:25;1.53;;;0.90;;
72087;SDS011;59961;50.232;8.616;2023-03-23T15:59:50;2.78;;;0.85;;
72087;SDS011;59961;50.232;8.616;2023-03-23T16:02:17;3.50;;;1.10;;
72087;SDS011;59961;50.232;8.616;2023-03-23T16:04:44;1.45;;;0.98;;
72087;SDS011;59961;50.232;8.616;2023-03-23T16:07:09;2.00;;;1.30;;
72087;SDS011;59961;50.232;8.616;2023-03-23T16:09:37;4.07;;;1.10;;
72087;SDS011;59961;50.232;8.616;2023-03-23T16:12:03;2.33;;;1.20;;
72087;SDS011;59961;50.232;8.616;2023-03-23T16:14:29;2.37;;;1.07;;
72087;SDS011;59961;50.232;8.616;2023-03-23T16:16:54;4.17;;;1.63;;
72087;SDS011;59961;50.232;8.616;2023-03-23T16:19:19;2.47;;;1.00;;
72087;SDS011;59961;50.232;8.616;2023-03-23T16:21:48;4.50;;;4.03;;
72087;SDS011;59961;50.232;8.616;2023-03-23T16:24:13;3.27;;;1.40;;
72087;SDS011;59961;50.232;8.616;2023-03-23T16:26:38;2.90;;;2.17;;
72087;SDS011;59961;50.232;8.616;2023-03-23T16:29:08;2.70;;;1.00;;
72087;SDS011;59961;50.232;8.616;2023-03-23T16:31:33;2.47;;;0.85;;
72087;SDS011;59961;50.232;8.616;2023-03-23T16:33:59;1.85;;;1.00;;
72087;SDS011;59961;50.232;8.616;2023-03-23T16:36:24;3.25;;;1.23;;